Terminal Aerodrome Forecast
Issued by NWS

Current Version | Previous Version | Text Only | Print | Product List | Glossary On
Versions: 1 2 3 4 5 6 7 8 9 10 11 12 13 14 15 16 17 18 19 20 21 22 23 24 25
000
FTUS46 KSEW 232300
TAFSEA
TAF
KSEA 232320Z 2400/2506 VRB02KT P6SM -RA SCT025 OVC050
     FM240200 14003KT 5SM -RA SCT012 OVC030
     FM240500 16008KT 4SM -RA BR SCT012 OVC025
     FM241200 20010G18KT 5SM -SHRA BR SCT012 BKN025 OVC035
     FM241800 21008KT P6SM SCT030 BKN045=

USA.gov is the U.S. government's official web portal to all federal, state and local government web resources and services.